Station: Karratha  

  Atmospheric Gas Attenuation - ITU Rec 676-11   ----------------- dB/100km -----------------
Date Time Temp RH % AH g/m3 Dew Point Wind Direction Speed kph Gust kph Barometer mB Rainfall Since 9am 24GHz 47GHz 76GHz 122GHz 134GHz 241GHz
08/05 09:20 25.8 23 5.54 3.1 41 50 1018.9 0 12.7 18.8 24.6 64.0 52.3 178.0
08/05 09:10 25.3 22 5.15 2.1 48 56 1018.8 0 11.9 18.5 23.6 61.2 48.7 165.2
08/05 09:00 25.1 22 5.09 1.9 44 57 1018.6 0 11.8 18.4 23.5 60.8 48.2 163.5
08/05 08:50 24.8 22 5.01 1.7 44 56 1018.6 0 11.6 18.4 23.3 60.4 47.5 161.2
08/05 08:40 24.7 22 4.98 1.6 43 46 1018.6 0 11.6 18.4 23.2 60.2 47.3 160.4
08/05 08:30 24.4 22 4.9 1.3 39 48 1018.6 0 11.4 18.3 23.1 59.8 46.7 158.1
08/05 08:20 24.2 23 5.06 1.8 35 41 1018.5 0 11.7 18.6 23.6 61.2 48.4 164.1
08/05 08:10 24 23 5 1.6 35 41 1018.5 0 11.6 18.5 23.5 60.9 47.9 162.4
08/05 08:00 23.7 23 4.92 1.4 33 44 1018.4 0 11.5 18.5 23.3 60.5 47.3 160.1
08/05 07:50 23 25 5.14 1.9 32 35 1018.3 0 11.9 18.9 24.2 62.8 49.9 169.3
08/05 07:40 21.9 29 5.6 3.1 26 28 1018.5 0 12.9 19.7 26.0 67.5 55.4 188.6
08/05 07:30 21.9 29 5.6 3.1 28 32 1018.4 0 12.9 19.7 26.0 67.5 55.4 188.6
08/05 07:20 22 28 5.43 2.7 28 32 1018.3 0 12.6 19.5 25.4 66.0 53.6 182.1
08/05 07:10 21.6 29 5.5 2.8 26 30 1018.2 0 12.7 19.6 25.7 66.9 54.5 185.5
08/05 07:00 21.8 27 5.18 2 28 35 1018.3 0 12.1 19.2 24.7 64.0 51.1 173.2
08/05 06:50 21.8 26 4.99 1.5 26 30 1018 0 11.7 18.9 24.1 62.4 49.1 166.2
08/05 06:40 22.1 24 4.68 0.6 28 33 1018.1 0 11.0 18.5 23.0 59.6 45.7 154.4
08/05 06:30 21.8 25 4.8 0.9 26 35 1017.9 0 11.3 18.7 23.5 60.8 47.1 159.3
08/05 06:20 21.9 25 4.82 1 28 32 1017.7 0 11.3 18.7 23.5 60.9 47.2 159.8
08/05 06:10 21.5 28 5.28 2.2 28 32 1017.6 0 12.3 19.3 25.0 65.0 52.3 177.5
08/05 06:00 21.7 28 5.34 2.4 28 35 1017.5 0 12.4 19.4 25.2 65.4 52.8 179.2
08/05 05:50 21.8 28 5.37 2.5 30 32 1017.5 0 12.5 19.4 25.2 65.6 53.0 180.1
08/05 05:40 22 27 5.24 2.2 28 32 1017.4 0 12.2 19.2 24.8 64.3 51.5 174.9
08/05 05:30 22.4 26 5.16 2 30 39 1017.3 0 12.0 19.0 24.4 63.3 50.4 171.1
08/05 05:20 22.8 24 4.88 1.2 30 35 1017.1 0 11.4 18.6 23.4 60.7 47.3 160.2
08/05 05:10 22.8 25 5.08 1.8 30 33 1017.1 0 11.8 18.8 24.0 62.3 49.4 167.4
08/05 05:00 23.5 22 4.65 0.6 32 43 1016.9 0 10.9 18.1 22.5 58.3 44.6 150.7
08/05 04:50 23.5 22 4.65 0.6 32 37 1016.7 0 10.9 18.1 22.5 58.3 44.6 150.7
08/05 04:40 23.7 21 4.49 0.1 32 35 1016.7 0 10.6 17.9 22.0 56.9 42.9 144.7
08/05 04:30 23.8 21 4.52 0.2 35 44 1016.8 0 10.6 17.9 22.0 57.0 43.1 145.6
08/05 04:20 23.9 21 4.54 0.3 37 41 1016.7 0 10.7 17.9 22.1 57.1 43.3 146.1
08/05 04:10 23.8 21 4.52 0.2 33 35 1016.5 0 10.6 17.9 22.0 57.0 43.1 145.5
08/05 04:00 23.6 22 4.68 0.7 30 39 1016.6 0 11.0 18.1 22.6 58.4 44.8 151.5
08/05 03:50 23.3 23 4.81 1 30 35 1016.7 0 11.3 18.4 23.0 59.7 46.3 156.7
08/05 03:40 23.2 23 4.78 0.9 26 30 1016.6 0 11.2 18.3 23.0 59.5 46.0 155.8
08/05 03:30 22.5 27 5.39 2.6 24 30 1016.6 0 12.5 19.2 25.1 65.1 52.7 179.2
08/05 03:20 22.3 29 5.73 3.4 22 26 1016.5 0 13.2 19.7 26.2 68.2 56.4 192.2
08/05 03:10 21.9 31 5.98 4 22 24 1016.5 0 13.7 20.1 27.1 70.7 59.4 202.6
08/05 03:00 22.2 30 5.89 3.8 24 28 1016.4 0 13.5 20.0 26.7 69.6 58.2 198.5
08/05 02:50 22.4 29 5.76 3.5 26 32 1016.4 0 13.3 19.7 26.3 68.3 56.7 193.1
08/05 02:40 22.1 32 6.25 4.6 24 28 1016.4 0 14.3 20.5 27.9 72.9 62.1 212.3
08/05 02:30 22.2 32 6.28 4.7 22 28 1016.4 0 14.3 20.5 28.0 73.0 62.4 213.2
08/05 02:20 22.3 33 6.52 5.3 24 26 1016.4 0 14.8 20.8 28.8 75.1 64.9 222.1
08/05 02:10 22.5 33 6.59 5.4 24 28 1016.5 0 15.0 20.8 28.9 75.5 65.5 224.3
08/05 02:00 22.6 34 6.83 6 24 28 1016.5 0 15.5 21.1 29.7 77.5 68.1 233.3
08/05 01:50 22.6 36 7.23 6.8 24 28 1016.4 0 16.3 21.7 31.0 81.1 72.5 248.9
08/05 01:40 22.3 41 8.1 8.4 22 24 1016.4 0 18.1 23.0 34.2 89.5 82.7 284.6
08/05 01:30 22.1 47 9.17 10.3 20 24 1016.5 0 20.4 24.6 38.1 100.0 95.6 329.7
08/05 01:20 22.2 50 9.82 11.3 20 26 1016.5 0 21.7 25.5 40.5 106.3 103.4 357.0
08/05 01:10 22.2 53 10.4 12.2 19 20 1016.5 0 23.0 26.4 42.7 112.1 110.6 382.3
08/05 01:00 22.5 54 10.79 12.7 20 24 1016.5 0 23.8 26.9 44.0 115.7 115.1 398.0
08/05 00:50 22.6 56 11.25 13.4 20 20 1016.6 0 24.7 27.6 45.7 120.3 120.8 418.0
08/05 00:40 22.9 57 11.65 13.9 19 20 1016.5 0 25.6 28.2 47.1 124.0 125.5 434.4
08/05 00:30 23.2 58 12.06 14.7 20 24 1016.5 0 26.4 28.7 48.6 127.9 130.3 451.4
08/05 00:20 23.5 59 12.48 15 22 24 1016.5 0 27.3 29.3 50.0 131.9 135.3 468.9
08/05 00:10 23.7 61 13.05 15.7 20 22 1016.7 0 28.5 30.2 52.2 137.7 142.6 494.1
08/05 00:00 23.7 64 13.69 16.5 19 20 1016.8 0 29.8 31.2 54.9 144.8 151.2 524.3
07/05 23:50 23.8 65 13.98 16.8 19 20 1016.7 0 30.4 31.7 56.0 147.8 155.0 537.4
07/05 23:40 23.8 66 14.2 17.1 20 20 1016.7 0 30.9 32.0 56.9 150.3 158.0 548.0
07/05 23:30 23.9 68 14.71 17.6 19 20 1016.7 0 31.9 32.9 59.0 155.8 164.9 572.0
07/05 23:20 24 71 15.45 18.4 19 20 1016.6 0 33.5 34.1 62.1 164.1 175.1 607.7
07/05 23:10 23.9 72 15.58 18.5 17 19 1016.6 0 33.8 34.4 62.8 165.8 177.2 615.0
07/05 23:00 24.2 71 15.62 18.6 17 20 1016.6 0 33.8 34.3 62.7 165.7 177.1 614.6
07/05 22:50 24.4 71 15.8 18.8 17 19 1016.7 0 34.2 34.6 63.4 167.4 179.2 622.0
07/05 22:40 24.6 70 15.75 18.8 17 19 1016.8 0 34.1 34.4 63.0 166.3 178.0 618.0
07/05 22:30 24.7 70 15.84 18.9 15 17 1016.7 0 34.3 34.5 63.3 167.2 179.1 621.6
07/05 22:20 24.8 70 15.93 19 15 17 1016.6 0 34.4 34.7 63.6 168.0 180.1 625.2
07/05 22:10 25 69 15.88 18.9 15 17 1016.6 0 34.3 34.5 63.2 167.0 178.9 621.1
07/05 22:00 25 68 15.65 18.7 15 17 1016.6 0 33.8 34.1 62.2 164.3 175.7 609.7
07/05 21:50 24.8 67 15.25 18.3 13 17 1016.5 0 33.0 33.5 60.6 160.1 170.5 591.6
07/05 21:40 24.7 67 15.16 18.2 13 15 1016.4 0 32.8 33.3 60.3 159.3 169.4 587.9
07/05 21:30 25 66 15.19 18.2 15 17 1016.4 0 32.9 33.3 60.2 159.0 169.2 587.1
07/05 21:20 25.5 65 15.39 18.4 15 17 1016.3 0 33.3 33.4 60.7 160.3 170.8 593.0
07/05 21:10 25.4 66 15.54 18.6 15 17 1016.2 0 33.6 33.7 61.4 162.2 173.1 601.0
07/05 21:00 25.2 68 15.83 18.9 15 17 1016.2 0 34.2 34.3 62.8 165.9 177.7 616.8
07/05 20:50 25.2 69 16.06 19.1 15 15 1016.1 0 34.7 34.7 63.8 168.6 181.0 628.2
07/05 20:40 25.3 71 16.62 19.7 15 17 1016 0 35.9 35.6 66.2 174.9 188.7 655.4
07/05 20:30 25.1 73 16.9 19.9 11 13 1016 0 36.5 36.2 67.6 178.6 193.3 671.3
07/05 20:20 25.1 74 17.13 20.1 11 13 1015.9 0 37.0 36.6 68.6 181.4 196.7 683.0
07/05 20:10 25.4 75 17.66 20.6 11 13 1015.8 0 38.1 37.5 70.7 187.0 203.7 707.5
07/05 20:00 25.3 75 17.56 20.5 11 13 1015.7 0 37.9 37.3 70.4 186.0 202.5 703.2
07/05 19:50 25.4 74 17.42 20.4 11 13 1015.5 0 37.6 37.0 69.6 184.1 200.1 695.0
07/05 19:40 25.5 73 17.28 20.3 15 15 1015.3 0 37.2 36.7 68.9 182.1 197.8 686.8
07/05 19:30 25.6 73 17.38 20.4 15 17 1015.2 0 37.5 36.8 69.3 183.1 199.0 690.9
07/05 19:20 25.6 70 16.67 19.9 15 17 1015.1 0 36.0 35.6 66.1 174.6 188.6 654.9
07/05 19:10 25.7 70 16.76 19.8 15 17 1015 0 36.1 35.7 66.4 175.5 189.6 658.5
07/05 19:00 25.9 70 16.95 20 17 20 1015 0 36.5 35.9 67.1 177.2 191.9 666.4
07/05 18:50 26.1 68 16.65 19.7 17 20 1014.9 0 35.9 35.3 65.6 173.3 187.0 649.6
07/05 18:40 26.2 65 16 19.1 17 19 1014.8 0 34.5 34.1 62.7 165.5 177.6 616.6
07/05 18:30 26.3 61 15.1 18.4 19 24 1014.7 0 32.6 32.6 58.8 155.2 164.9 572.3
07/05 18:20 26.3 61 15.1 18.4 19 20 1014.6 0 32.6 32.6 58.8 155.1 164.9 572.3
07/05 18:10 26.4 60 14.94 18 17 19 1014.4 0 32.2 32.2 58.0 153.2 162.4 563.9
07/05 18:00 26.7 57 14.43 17.5 20 26 1014.3 0 31.1 31.3 55.7 147.0 155.0 537.8
07/05 17:50 26.6 58 14.6 17.7 19 22 1014.2 0 31.5 31.6 56.4 149.0 157.4 546.3
07/05 17:40 26.9 55 14.08 17.1 20 24 1014.1 0 30.4 30.6 54.1 142.8 149.9 520.2
07/05 17:30 27.2 54 14.05 17.1 24 30 1014 0 30.3 30.5 53.8 141.9 148.9 516.8
07/05 17:20 27.5 54 14.29 17.4 24 26 1014 0 30.8 30.8 54.5 144.0 151.5 525.8
07/05 17:10 27.7 52 13.91 17.2 20 24 1014 0 30.0 30.1 52.9 139.6 146.1 507.1
07/05 17:00 27.9 51 13.79 17.1 22 30 1014 0 29.7 29.8 52.3 138.0 144.2 500.5
07/05 16:50 28.3 50 13.82 16.9 20 24 1014 0 29.8 29.7 52.1 137.6 143.9 499.3

Last Refresh: 08-May-2026 11:03:48

Bureau of Meteorology